Time;durP1;ratioP1;P1;durP2;ratioP2;P2;SDS_P1;SDS_P2;PMS_P1;PMS_P2;Temp;Humidity;BMP_temperature;BMP_pressure;BME280_temperature;BME280_humidity;BME280_pressure;Samples;Min_cycle;Max_cycle;Signal;HPM_P1;HPM_P2
2021/06/02 00:01:55;;;;;;;10.20;5.13;;;19.70;50.90;;;;;;5050664;28;20114;-64
2021/06/02 00:04:26;;;;;;;12.10;5.78;;;19.60;51.00;;;;;;5045457;28;20036;-64
2021/06/02 00:06:56;;;;;;;12.35;5.78;;;19.60;51.30;;;;;;5035261;28;20518;-64
2021/06/02 00:09:25;;;;;;;11.18;6.05;;;19.50;51.20;;;;;;5030351;28;20040;-64
2021/06/02 00:11:51;;;;;;;13.55;6.93;;;19.50;51.30;;;;;;5046432;28;20047;-63
2021/06/02 00:14:18;;;;;;;8.27;6.32;;;19.50;51.30;;;;;;5037412;28;20044;-64
2021/06/02 00:16:45;;;;;;;10.00;6.38;;;19.40;51.50;;;;;;5047098;28;20043;-64
2021/06/02 00:19:10;;;;;;;10.15;5.78;;;19.40;51.60;;;;;;5046183;28;20039;-65
2021/06/02 00:21:39;;;;;;;10.38;5.57;;;19.30;51.60;;;;;;5043595;28;20044;-64
2021/06/02 00:24:06;;;;;;;10.88;6.68;;;19.30;51.60;;;;;;5048041;28;20538;-64
2021/06/02 00:26:35;;;;;;;9.38;6.35;;;19.20;51.60;;;;;;5044700;28;20041;-64
2021/06/02 00:29:06;;;;;;;10.52;5.97;;;19.10;51.50;;;;;;5039167;28;20048;-64
2021/06/02 00:31:36;;;;;;;8.40;6.20;;;19.10;51.70;;;;;;5036208;28;20047;-65
2021/06/02 00:34:03;;;;;;;11.25;7.20;;;19.00;51.90;;;;;;5041832;28;20047;-65
2021/06/02 00:36:31;;;;;;;11.20;6.20;;;18.90;52.00;;;;;;5045080;28;20188;-64
2021/06/02 00:39:00;;;;;;;8.43;6.13;;;18.80;52.30;;;;;;5053211;28;20050;-63
2021/06/02 00:41:28;;;;;;;8.68;5.50;;;18.80;52.50;;;;;;5046955;28;20052;-64
2021/06/02 00:43:54;;;;;;;10.25;5.63;;;18.80;52.60;;;;;;5047961;28;20045;-63
2021/06/02 00:46:22;;;;;;;7.78;5.32;;;18.70;52.50;;;;;;5041665;28;20098;-64
2021/06/02 00:48:51;;;;;;;10.15;5.53;;;18.70;52.30;;;;;;5035728;28;20081;-64
2021/06/02 00:51:20;;;;;;;8.38;5.60;;;18.60;52.10;;;;;;5046062;28;20119;-64
2021/06/02 00:53:46;;;;;;;9.65;5.28;;;18.60;52.10;;;;;;5045645;28;20047;-63
2021/06/02 00:56:15;;;;;;;7.57;4.88;;;18.50;52.00;;;;;;5057915;28;20533;-64
2021/06/02 00:58:47;;;;;;;8.85;4.82;;;18.50;52.00;;;;;;5040631;28;20036;-63
2021/06/02 01:01:17;;;;;;;6.90;4.72;;;18.50;52.00;;;;;;5053170;28;20048;-64
2021/06/02 01:03:44;;;;;;;10.38;4.60;;;18.40;52.00;;;;;;5031574;28;20052;-64
2021/06/02 01:06:11;;;;;;;7.05;4.53;;;18.40;51.80;;;;;;5041228;28;20039;-63
2021/06/02 01:08:43;;;;;;;11.15;4.57;;;18.40;51.80;;;;;;5035179;28;20047;-64
2021/06/02 01:11:09;;;;;;;5.15;3.88;;;18.30;51.70;;;;;;5036561;28;20115;-64
2021/06/02 01:13:44;;;;;;;10.55;4.40;;;18.30;51.50;;;;;;5048067;28;20045;-64
2021/06/02 01:16:12;;;;;;;7.10;4.10;;;18.20;51.20;;;;;;5044844;28;20063;-63
2021/06/02 01:18:37;;;;;;;7.00;3.65;;;18.20;51.30;;;;;;5036248;28;21262;-64
2021/06/02 01:21:10;;;;;;;6.40;4.10;;;18.20;51.20;;;;;;5038790;28;20048;-64
2021/06/02 01:23:36;;;;;;;6.20;4.35;;;18.10;51.00;;;;;;5042669;28;20033;-64
2021/06/02 01:26:05;;;;;;;6.40;3.97;;;18.10;51.20;;;;;;5033054;28;20075;-63
2021/06/02 01:28:33;;;;;;;9.25;3.92;;;18.00;51.20;;;;;;5059340;28;20037;-64
2021/06/02 01:31:03;;;;;;;8.25;4.20;;;18.00;51.10;;;;;;5035263;28;20117;-64
2021/06/02 01:33:56;;;;;;;10.95;4.00;;;17.90;51.10;;;;;;5047814;28;20055;-64
2021/06/02 01:36:46;;;;;;;4.40;3.42;;;17.90;51.20;;;;;;5041544;28;20124;-64
2021/06/02 01:39:33;;;;;;;5.10;3.90;;;17.90;51.40;;;;;;5034381;28;20068;-64
2021/06/02 01:42:18;;;;;;;5.68;3.90;;;17.80;51.60;;;;;;5037506;28;20098;-63
2021/06/02 01:45:03;;;;;;;5.75;4.03;;;17.80;51.70;;;;;;5040501;28;20032;-63
2021/06/02 01:48:05;;;;;;;6.30;3.85;;;17.70;51.70;;;;;;5040214;28;20044;-64
2021/06/02 01:51:08;;;;;;;7.88;4.03;;;17.70;51.70;;;;;;5040495;28;20029;-64
2021/06/02 01:54:07;;;;;;;6.45;3.80;;;17.70;51.60;;;;;;5038595;28;20100;-64
2021/06/02 01:57:10;;;;;;;7.68;3.63;;;17.60;51.60;;;;;;5049614;28;20763;-64
2021/06/02 01:59:53;;;;;;;7.47;4.18;;;17.60;51.60;;;;;;5043145;28;20131;-64
2021/06/02 02:02:31;;;;;;;5.60;4.15;;;17.50;51.80;;;;;;5024298;28;22117;-64
2021/06/02 02:05:15;;;;;;;8.82;4.20;;;17.50;51.70;;;;;;5034503;28;20137;-64
2021/06/02 02:08:15;;;;;;;4.75;3.45;;;17.50;51.90;;;;;;5039454;28;20947;-64
2021/06/02 02:10:48;;;;;;;6.97;4.20;;;17.50;51.80;;;;;;5040015;28;20044;-64
2021/06/02 02:13:44;;;;;;;8.82;4.22;;;17.50;51.70;;;;;;5039899;28;20068;-64
2021/06/02 02:16:31;;;;;;;7.50;3.78;;;17.40;51.70;;;;;;5043893;28;21271;-64
2021/06/02 02:19:29;;;;;;;9.15;4.60;;;17.40;51.80;;;;;;5037835;28;20044;-63
2021/06/02 02:21:59;;;;;;;7.97;4.50;;;17.30;51.90;;;;;;5041114;28;20036;-63
2021/06/02 02:24:49;;;;;;;6.35;4.45;;;17.30;52.00;;;;;;5041672;28;20048;-63
2021/06/02 02:27:30;;;;;;;7.22;5.00;;;17.20;52.00;;;;;;5048777;28;20045;-64
2021/06/02 02:30:26;;;;;;;8.82;5.07;;;17.20;52.10;;;;;;5052640;28;20139;-63
2021/06/02 02:33:01;;;;;;;10.43;4.85;;;17.20;52.30;;;;;;5043704;28;20055;-64
2021/06/02 02:35:41;;;;;;;9.18;5.15;;;17.10;52.30;;;;;;5050401;28;20074;-64
2021/06/02 02:38:25;;;;;;;7.47;5.07;;;17.10;52.30;;;;;;5044340;28;20040;-64
2021/06/02 02:40:54;;;;;;;7.47;4.90;;;17.10;52.30;;;;;;5037086;28;20067;-63
2021/06/02 02:43:52;;;;;;;8.32;5.32;;;17.00;52.40;;;;;;5046924;28;20107;-63
2021/06/02 02:46:32;;;;;;;7.93;5.32;;;17.00;52.50;;;;;;5051679;28;20054;-63
2021/06/02 02:49:23;;;;;;;9.32;5.78;;;17.00;52.90;;;;;;5038577;28;20903;-64
2021/06/02 02:52:19;;;;;;;8.70;5.80;;;16.90;52.70;;;;;;5037967;28;20040;-64
2021/06/02 02:55:06;;;;;;;13.50;6.18;;;16.90;52.90;;;;;;5044055;28;20746;-63
2021/06/02 02:57:54;;;;;;;11.27;6.20;;;16.90;53.00;;;;;;5066829;28;20120;-64
2021/06/02 03:00:25;;;;;;;9.40;6.20;;;16.90;53.10;;;;;;5042820;28;20067;-64
2021/06/02 03:02:55;;;;;;;11.23;6.47;;;16.90;53.10;;;;;;5049799;28;20457;-64
2021/06/02 03:05:28;;;;;;;11.75;7.25;;;16.90;53.10;;;;;;5040719;28;20040;-63
2021/06/02 03:08:08;;;;;;;15.63;7.35;;;16.90;53.20;;;;;;5034087;28;20040;-63
2021/06/02 03:10:35;;;;;;;11.88;7.40;;;;;;;;;;5032562;28;20056;-63
2021/06/02 03:13:21;;;;;;;13.45;7.30;;;16.90;52.70;;;;;;5038508;28;20525;-64
2021/06/02 03:15:59;;;;;;;13.35;8.43;;;16.90;53.40;;;;;;5041120;28;20051;-63
2021/06/02 03:19:12;;;;;;;11.82;7.97;;;16.90;53.40;;;;;;5040660;28;20897;-64
2021/06/02 03:21:51;;;;;;;12.80;7.65;;;16.90;53.50;;;;;;4993262;28;20030;-64
2021/06/02 03:24:27;;;;;;;10.73;7.63;;;16.90;53.50;;;;;;5040165;28;20032;-64
2021/06/02 03:27:13;;;;;;;13.13;8.45;;;16.80;53.60;;;;;;5038780;28;20175;-64
2021/06/02 03:29:55;;;;;;;13.50;8.18;;;16.80;53.70;;;;;;5045195;28;20024;-64
2021/06/02 03:33:01;;;;;;;11.80;7.57;;;16.80;53.70;;;;;;5029960;28;20051;-64
2021/06/02 03:35:53;;;;;;;16.85;8.48;;;16.80;54.40;;;;;;5032351;28;20172;-64
2021/06/02 03:39:04;;;;;;;18.30;8.27;;;16.80;54.00;;;;;;5041689;28;20033;-64
2021/06/02 03:41:44;;;;;;;13.57;7.82;;;16.80;54.10;;;;;;5038994;28;20205;-64
2021/06/02 03:44:34;;;;;;;13.93;8.05;;;16.80;54.20;;;;;;5040127;28;20044;-64
2021/06/02 03:47:19;;;;;;;13.98;8.07;;;16.80;54.30;;;;;;5037251;28;20134;-64
2021/06/02 03:49:55;;;;;;;15.25;7.88;;;16.80;54.30;;;;;;5042853;28;20040;-63
2021/06/02 03:52:38;;;;;;;14.00;7.65;;;16.70;54.30;;;;;;5039657;28;20033;-63
2021/06/02 03:55:18;;;;;;;12.85;7.28;;;16.80;54.40;;;;;;5042038;28;20040;-64
2021/06/02 03:58:03;;;;;;;13.80;7.35;;;16.70;54.50;;;;;;5043206;28;20135;-64
2021/06/02 04:00:37;;;;;;;12.65;7.70;;;16.80;54.40;;;;;;5051602;28;20045;-63
2021/06/02 04:03:03;;;;;;;14.43;7.43;;;16.80;54.40;;;;;;5043123;28;20041;-63
2021/06/02 04:05:49;;;;;;;12.65;7.03;;;16.80;54.40;;;;;;5048268;28;20036;-64
2021/06/02 04:08:33;;;;;;;12.68;7.03;;;16.80;54.50;;;;;;5042130;28;20044;-65
2021/06/02 04:11:06;;;;;;;12.90;7.22;;;16.80;54.40;;;;;;5045886;28;20513;-63
2021/06/02 04:13:43;;;;;;;12.50;7.95;;;16.70;54.40;;;;;;5041039;28;20040;-63
2021/06/02 04:16:14;;;;;;;14.05;7.18;;;16.70;54.50;;;;;;5046422;28;21842;-63
2021/06/02 04:18:48;;;;;;;13.55;6.90;;;16.70;54.50;;;;;;5044416;28;20222;-63
2021/06/02 04:21:15;;;;;;;11.60;6.63;;;16.70;54.50;;;;;;5048057;28;20381;-64
2021/06/02 04:23:43;;;;;;;14.40;7.55;;;16.70;54.60;;;;;;5040801;28;20036;-63
2021/06/02 04:26:09;;;;;;;13.13;7.05;;;16.70;54.60;;;;;;5048681;28;20063;-64
2021/06/02 04:28:37;;;;;;;10.93;6.97;;;16.70;54.60;;;;;;5048537;28;20608;-63
2021/06/02 04:31:15;;;;;;;11.93;6.70;;;16.70;54.80;;;;;;5041115;28;20078;-63
2021/06/02 04:33:43;;;;;;;8.98;6.18;;;16.70;54.80;;;;;;5040195;28;20029;-64
2021/06/02 04:36:13;;;;;;;11.02;6.80;;;16.80;54.80;;;;;;5040823;28;20120;-64
2021/06/02 04:38:41;;;;;;;12.68;7.57;;;16.80;54.80;;;;;;5053465;28;20062;-63
2021/06/02 04:41:08;;;;;;;8.75;5.95;;;16.80;54.70;;;;;;5049162;28;20052;-64
2021/06/02 04:43:39;;;;;;;11.82;6.35;;;16.90;54.60;;;;;;5049324;28;20062;-64
2021/06/02 04:46:07;;;;;;;9.73;5.90;;;16.90;54.60;;;;;;5050348;28;20047;-63
2021/06/02 04:48:36;;;;;;;13.02;6.75;;;16.90;54.50;;;;;;5049914;28;20032;-64
2021/06/02 04:51:24;;;;;;;13.60;6.20;;;16.90;54.40;;;;;;5050831;28;20090;-63
2021/06/02 04:54:04;;;;;;;13.80;6.05;;;17.00;54.40;;;;;;5043045;28;20040;-64
2021/06/02 04:57:06;;;;;;;9.68;5.57;;;17.00;54.40;;;;;;5046186;28;20037;-64
2021/06/02 04:59:52;;;;;;;9.07;5.30;;;17.10;54.40;;;;;;5052179;28;20429;-64
2021/06/02 05:02:46;;;;;;;8.73;4.97;;;17.10;54.30;;;;;;5039251;28;20033;-63
2021/06/02 05:05:33;;;;;;;8.05;5.38;;;17.10;54.30;;;;;;5035184;28;20387;-63
2021/06/02 05:08:26;;;;;;;6.65;4.78;;;17.20;54.10;;;;;;5049457;28;20490;-64
2021/06/02 05:11:25;;;;;;;7.28;4.70;;;17.30;54.00;;;;;;5044837;28;20490;-63
2021/06/02 05:13:51;;;;;;;9.63;4.80;;;17.30;53.90;;;;;;5049804;28;20164;-63
2021/06/02 05:16:46;;;;;;;8.65;4.63;;;17.40;53.80;;;;;;5055520;28;20040;-64
2021/06/02 05:22:15;;;;;;;10.93;3.80;;;17.60;53.80;;;;;;5043953;28;20047;-63
2021/06/02 05:25:27;;;;;;;5.70;3.72;;;17.60;53.40;;;;;;5054850;28;20035;-63
2021/06/02 05:28:11;;;;;;;10.48;4.30;;;17.70;53.60;;;;;;5049771;28;20059;-64
2021/06/02 05:30:46;;;;;;;5.55;3.40;;;17.80;53.20;;;;;;5060898;28;20451;-64
2021/06/02 05:33:36;;;;;;;5.05;3.33;;;17.90;53.00;;;;;;5055581;28;20074;-63
2021/06/02 05:36:32;;;;;;;5.32;2.75;;;18.00;52.80;;;;;;5047231;28;20190;-64
2021/06/02 05:39:24;;;;;;;7.93;2.80;;;18.10;52.50;;;;;;5053710;28;20441;-63
2021/06/02 05:42:11;;;;;;;7.43;2.90;;;18.20;52.20;;;;;;5059397;28;20053;-64
2021/06/02 05:45:13;;;;;;;3.97;3.00;;;18.40;52.00;;;;;;5059902;28;20029;-63
2021/06/02 05:47:56;;;;;;;5.10;2.75;;;18.60;51.80;;;;;;5046114;28;20036;-63
2021/06/02 05:50:43;;;;;;;5.28;2.58;;;18.80;51.50;;;;;;5054869;28;20054;-64
2021/06/02 05:53:08;;;;;;;3.90;2.42;;;18.90;51.20;;;;;;5050067;28;20418;-64
2021/06/02 05:55:46;;;;;;;3.95;2.50;;;19.10;50.80;;;;;;5053320;28;20037;-63
2021/06/02 05:58:36;;;;;;;3.58;2.22;;;19.40;50.60;;;;;;5058147;28;20075;-64
2021/06/02 06:01:31;;;;;;;5.57;2.22;;;20.80;50.50;;;;;;5053178;28;20386;-64
2021/06/02 06:04:13;;;;;;;3.08;2.15;;;23.00;47.20;;;;;;5037941;28;20052;-64
2021/06/02 06:07:10;;;;;;;4.00;2.15;;;25.20;42.40;;;;;;5047167;28;20127;-65
2021/06/02 06:10:09;;;;;;;4.40;1.90;;;27.10;39.30;;;;;;5055760;28;20043;-64
2021/06/02 06:12:56;;;;;;;4.28;2.00;;;28.50;36.20;;;;;;5052899;28;20036;-64
2021/06/02 06:16:05;;;;;;;3.10;1.95;;;29.70;33.70;;;;;;5059583;28;20461;-64
2021/06/02 06:18:33;;;;;;;2.15;1.80;;;30.80;31.90;;;;;;5051134;28;20445;-65
2021/06/02 06:21:21;;;;;;;4.20;1.80;;;31.70;29.30;;;;;;5057425;28;20029;-64
2021/06/02 06:24:00;;;;;;;7.68;1.67;;;32.10;28.60;;;;;;5048869;28;20064;-64
2021/06/02 06:26:48;;;;;;;4.30;1.55;;;32.40;28.10;;;;;;5041212;28;20028;-64
2021/06/02 06:29:40;;;;;;;3.22;1.90;;;32.00;28.10;;;;;;5043515;28;20047;-64
2021/06/02 06:32:07;;;;;;;2.53;1.50;;;31.40;28.20;;;;;;5052277;28;20043;-64
2021/06/02 06:34:34;;;;;;;6.35;1.80;;;31.00;28.20;;;;;;5050930;28;20093;-64
2021/06/02 06:37:02;;;;;;;10.93;1.98;;;30.90;28.30;;;;;;5047151;28;20071;-64
2021/06/02 06:39:47;;;;;;;3.13;1.70;;;30.30;28.50;;;;;;5044293;28;20569;-64
2021/06/02 06:42:20;;;;;;;3.22;1.70;;;29.90;29.10;;;;;;5046740;28;20041;-64
2021/06/02 06:44:49;;;;;;;4.07;1.80;;;29.40;29.60;;;;;;5046632;28;20498;-65
2021/06/02 06:47:16;;;;;;;7.65;2.10;;;28.80;29.90;;;;;;5052657;28;20403;-64
2021/06/02 06:49:46;;;;;;;2.30;1.60;;;28.50;30.20;;;;;;5048908;28;20032;-64
2021/06/02 06:52:14;;;;;;;2.92;1.85;;;28.30;30.50;;;;;;5050440;28;20043;-64
2021/06/02 06:54:43;;;;;;;4.53;1.80;;;28.00;31.00;;;;;;5046676;28;20052;-63
2021/06/02 06:57:09;;;;;;;6.68;2.10;;;27.70;31.60;;;;;;5054326;28;20036;-64
2021/06/02 06:59:35;;;;;;;5.45;2.30;;;27.30;31.50;;;;;;5044323;28;20040;-64
2021/06/02 07:02:01;;;;;;;7.45;1.90;;;26.80;32.50;;;;;;5046523;28;20453;-64
2021/06/02 07:04:33;;;;;;;9.82;2.08;;;26.30;33.40;;;;;;5053857;28;20817;-63
2021/06/02 07:06:59;;;;;;;4.72;1.70;;;25.90;34.00;;;;;;5052314;28;20037;-64
2021/06/02 07:09:25;;;;;;;5.35;1.85;;;25.60;35.00;;;;;;5042557;28;20028;-64
2021/06/02 07:11:55;;;;;;;4.82;2.13;;;25.40;35.70;;;;;;5047976;28;20643;-63
2021/06/02 07:14:28;;;;;;;3.72;2.15;;;25.40;35.70;;;;;;5043370;28;20048;-63
2021/06/02 07:16:55;;;;;;;11.68;2.00;;;25.70;35.60;;;;;;5051483;28;20044;-63
2021/06/02 07:19:22;;;;;;;4.97;1.90;;;26.30;35.10;;;;;;5045196;28;20095;-62
2021/06/02 07:21:49;;;;;;;6.20;2.10;;;27.20;34.00;;;;;;5056016;28;20570;-63
2021/06/02 07:24:19;;;;;;;4.88;2.33;;;28.70;32.70;;;;;;5049837;28;20414;-63
2021/06/02 07:26:46;;;;;;;8.73;2.17;;;29.90;30.20;;;;;;5051967;28;20036;-63
2021/06/02 07:29:14;;;;;;;3.05;2.10;;;31.10;29.10;;;;;;5047912;28;20044;-64
2021/06/02 07:31:44;;;;;;;6.50;2.10;;;31.90;28.00;;;;;;5047950;28;20079;-63
2021/06/02 07:34:09;;;;;;;6.10;1.70;;;32.80;27.50;;;;;;5044919;28;20036;-63
2021/06/02 07:36:37;;;;;;;4.45;2.42;;;33.70;26.40;;;;;;5049736;28;20410;-63
2021/06/02 07:39:06;;;;;;;3.72;2.10;;;;;;;;;;5044440;28;20030;-63
2021/06/02 07:41:34;;;;;;;5.80;2.10;;;;;;;;;;5033221;28;20045;-64
2021/06/02 07:44:02;;;;;;;5.90;2.47;;;;;;;;;;5062090;28;21105;-64
2021/06/02 07:46:30;;;;;;;2.70;1.95;;;;;;;;;;5040839;28;20135;-63
2021/06/02 07:48:59;;;;;;;4.90;1.60;;;;;;;;;;5050347;28;20130;-63
2021/06/02 07:51:27;;;;;;;8.68;1.85;;;;;;;;;;5038319;28;20621;-64
2021/06/02 07:53:55;;;;;;;7.63;2.00;;;;;;;;;;5050475;28;20032;-64
2021/06/02 07:56:24;;;;;;;8.40;2.00;;;;;;;;;;5052554;28;20064;-63
2021/06/02 07:58:52;;;;;;;7.78;1.90;;;;;;;;;;5045840;28;20201;-62
2021/06/02 08:01:18;;;;;;;3.92;2.00;;;;;;;;;;5040436;28;20071;-63
2021/06/02 08:03:46;;;;;;;5.40;2.00;;;;;;;;;;5043327;28;20036;-64
2021/06/02 08:06:12;;;;;;;6.15;2.15;;;;;;;;;;5050304;28;20440;-63
2021/06/02 08:08:38;;;;;;;5.95;1.98;;;;;;;;;;5051871;28;20032;-64
2021/06/02 08:11:07;;;;;;;4.53;2.03;;;;;;;;;;5050522;28;20557;-63
2021/06/02 08:13:33;;;;;;;5.95;2.38;;;;;;;;;;5050915;28;20441;-63
2021/06/02 08:15:59;;;;;;;4.68;2.30;;;;;;;;;;5050516;28;20024;-64
2021/06/02 08:18:25;;;;;;;3.67;2.15;;;;;;;;;;5052947;28;20028;-64
2021/06/02 08:20:51;;;;;;;4.28;2.08;;;;;;;;;;5043545;28;20029;-65
2021/06/02 08:23:17;;;;;;;5.82;1.92;;;;;;;;;;5054539;28;20035;-65
2021/06/02 08:25:45;;;;;;;5.07;2.08;;;;;;;;;;5047212;28;20037;-64
2021/06/02 08:28:11;;;;;;;3.47;2.10;;;34.30;25.50;;;;;;5055995;28;20126;-64
2021/06/02 08:30:38;;;;;;;4.85;2.13;;;38.90;22.20;;;;;;5046037;28;20131;-64
2021/06/02 08:33:08;;;;;;;2.75;1.85;;;39.20;21.80;;;;;;5046704;28;20044;-65
2021/06/02 08:35:34;;;;;;;4.40;2.10;;;39.70;21.60;;;;;;5052263;28;20120;-65
2021/06/02 08:38:01;;;;;;;5.55;2.20;;;39.90;21.20;;;;;;5052152;28;20375;-65
2021/06/02 08:40:27;;;;;;;4.63;2.38;;;40.30;21.00;;;;;;5035506;28;20052;-65
2021/06/02 08:42:53;;;;;;;6.95;2.20;;;40.50;21.00;;;;;;5049759;28;20034;-65
2021/06/02 08:45:19;;;;;;;7.43;2.10;;;40.70;20.70;;;;;;5055186;28;20482;-65
2021/06/02 08:47:47;;;;;;;9.25;2.55;;;40.90;20.40;;;;;;5041876;28;22312;-65
2021/06/02 08:50:17;;;;;;;5.07;2.03;;;41.00;20.50;;;;;;5047756;28;20036;-64
2021/06/02 08:52:43;;;;;;;3.47;2.20;;;41.20;20.50;;;;;;5046854;28;20056;-64
2021/06/02 08:55:15;;;;;;;4.47;2.08;;;41.40;20.10;;;;;;5062972;28;20040;-64
2021/06/02 08:57:44;;;;;;;6.05;2.17;;;41.60;20.30;;;;;;5061682;28;20044;-64
2021/06/02 09:00:12;;;;;;;8.73;2.50;;;41.80;20.00;;;;;;5051061;28;20035;-65
2021/06/02 09:02:41;;;;;;;5.97;2.45;;;41.90;19.60;;;;;;5051066;28;20051;-65
2021/06/02 09:05:12;;;;;;;5.40;2.05;;;42.00;19.50;;;;;;5051954;28;20040;-64
2021/06/02 09:07:41;;;;;;;8.85;2.15;;;42.10;19.50;;;;;;5054074;28;20048;-65
2021/06/02 09:10:09;;;;;;;1.92;1.73;;;42.20;19.40;;;;;;5045956;28;20047;-64
2021/06/02 09:12:41;;;;;;;7.22;2.47;;;42.30;19.60;;;;;;5054380;28;20403;-64
2021/06/02 09:15:12;;;;;;;6.88;2.50;;;42.40;19.00;;;;;;5054536;28;20051;-65
2021/06/02 09:18:05;;;;;;;6.45;2.45;;;42.50;19.20;;;;;;5050012;28;20032;-65
2021/06/02 09:21:03;;;;;;;5.90;2.50;;;42.40;18.60;;;;;;5057021;28;20556;-64
2021/06/02 09:23:39;;;;;;;8.27;2.35;;;42.20;19.40;;;;;;5041645;28;20468;-64
2021/06/02 09:26:16;;;;;;;5.90;2.65;;;42.20;18.90;;;;;;5058849;28;20036;-64
2021/06/02 09:28:54;;;;;;;5.82;2.88;;;42.10;18.70;;;;;;5050830;28;20432;-64
2021/06/02 09:31:27;;;;;;;11.43;2.97;;;41.90;18.80;;;;;;5046660;28;20029;-64
2021/06/02 09:34:00;;;;;;;6.60;2.78;;;41.60;18.90;;;;;;5057260;28;20457;-64
2021/06/02 09:36:32;;;;;;;8.30;3.13;;;41.60;19.30;;;;;;5051226;28;20064;-64
2021/06/02 09:39:04;;;;;;;10.93;4.03;;;41.70;19.30;;;;;;5053248;28;20079;-64
2021/06/02 09:41:37;;;;;;;14.77;4.32;;;41.60;19.00;;;;;;5063126;27;20037;-64
2021/06/02 09:44:32;;;;;;;8.27;3.70;;;41.50;18.70;;;;;;5047998;27;20040;-64
2021/06/02 09:47:04;;;;;;;5.32;3.15;;;41.40;19.50;;;;;;5036168;28;21133;-65
2021/06/02 09:49:51;;;;;;;5.72;3.00;;;41.40;18.60;;;;;;5055183;27;20086;-64
2021/06/02 09:52:18;;;;;;;8.40;2.85;;;41.00;19.30;;;;;;5057423;28;20429;-64
2021/06/02 09:54:45;;;;;;;6.22;2.50;;;40.90;19.90;;;;;;5060180;28;20040;-64
2021/06/02 09:57:15;;;;;;;7.35;2.83;;;40.90;19.50;;;;;;5056595;28;20044;-64
2021/06/02 10:00:00;;;;;;;5.95;2.63;;;40.90;18.90;;;;;;5057038;28;20029;-64
2021/06/02 10:02:29;;;;;;;6.45;2.78;;;40.80;19.40;;;;;;5052925;27;20039;-64
2021/06/02 10:05:08;;;;;;;10.63;3.30;;;40.90;19.30;;;;;;5059908;27;20071;-64
2021/06/02 10:07:46;;;;;;;6.32;3.50;;;40.80;19.60;;;;;;5058270;28;20101;-64
2021/06/02 10:10:17;;;;;;;8.65;3.13;;;;;;;;;;5051028;27;20386;-65
2021/06/02 10:13:00;;;;;;;8.88;3.10;;;;;;;;;;5036325;28;20056;-63
2021/06/02 10:15:29;;;;;;;8.30;2.90;;;;;;;;;;5069913;28;20036;-64
2021/06/02 10:17:57;;;;;;;7.47;2.67;;;40.60;19.80;;;;;;5052741;28;20044;-64
2021/06/02 10:20:26;;;;;;;7.60;2.80;;;39.80;19.50;;;;;;5048794;28;20044;-64
2021/06/02 10:22:57;;;;;;;6.07;2.95;;;39.50;20.10;;;;;;5060209;28;20549;-64
2021/06/02 10:25:31;;;;;;;5.45;3.05;;;39.20;20.30;;;;;;5061024;27;20058;-64
2021/06/02 10:27:57;;;;;;;6.65;2.55;;;38.90;20.50;;;;;;5081000;28;20035;-64
2021/06/02 10:30:28;;;;;;;8.05;3.05;;;38.60;20.90;;;;;;5053275;28;20123;-64
2021/06/02 10:32:58;;;;;;;6.55;3.00;;;38.30;21.40;;;;;;5063438;28;20525;-64
2021/06/02 10:35:24;;;;;;;11.70;3.10;;;38.10;21.50;;;;;;5062109;27;20063;-64
2021/06/02 10:37:52;;;;;;;12.55;3.25;;;37.90;22.00;;;;;;5058120;27;20658;-64
2021/06/02 10:40:23;;;;;;;10.85;3.53;;;37.80;22.40;;;;;;5052067;28;20033;-64
2021/06/02 10:43:14;;;;;;;8.10;2.90;;;37.50;21.90;;;;;;5062313;27;20044;-63
2021/06/02 10:45:53;;;;;;;6.93;2.90;;;;;;;;;;5067861;27;20538;-63
2021/06/02 10:48:40;;;;;;;8.18;3.38;;;;;;;;;;5058893;28;20564;-63
2021/06/02 10:51:09;;;;;;;7.70;3.33;;;;;;;;;;5046126;28;20220;-63
2021/06/02 10:53:39;;;;;;;9.32;3.28;;;37.10;22.90;;;;;;5057388;28;20047;-64
2021/06/02 10:56:21;;;;;;;7.95;3.20;;;35.40;24.40;;;;;;5056976;28;20843;-63
2021/06/02 10:58:48;;;;;;;5.20;2.67;;;34.80;24.70;;;;;;5048692;28;20725;-64
2021/06/02 11:01:18;;;;;;;6.10;2.83;;;34.50;26.00;;;;;;5046173;28;20036;-63
2021/06/02 11:04:10;;;;;;;7.97;2.80;;;34.20;26.60;;;;;;5047641;28;20045;-63
2021/06/02 11:06:41;;;;;;;10.13;2.78;;;34.00;26.20;;;;;;5046883;28;20068;-64
2021/06/02 11:09:08;;;;;;;5.90;2.78;;;;;;;;;;5045014;28;20044;-63
2021/06/02 11:11:42;;;;;;;5.63;2.40;;;;;;;;;;5049737;28;20037;-64
2021/06/02 11:14:18;;;;;;;8.27;3.00;;;;;;;;;;5052091;28;20509;-63
2021/06/02 11:16:45;;;;;;;9.70;3.28;;;33.90;27.20;;;;;;5044407;28;20055;-64
2021/06/02 11:19:23;;;;;;;8.70;3.40;;;33.80;25.50;;;;;;5041469;28;20037;-63
2021/06/02 11:21:55;;;;;;;10.10;3.03;;;33.90;26.30;;;;;;5047903;28;20098;-63
2021/06/02 11:24:37;;;;;;;10.35;3.22;;;34.00;26.00;;;;;;5050993;28;20568;-64
2021/06/02 11:27:11;;;;;;;8.95;3.72;;;34.00;25.70;;;;;;5037096;28;20060;-64
2021/06/02 11:29:55;;;;;;;10.52;3.17;;;33.90;25.90;;;;;;5039422;28;20113;-63
2021/06/02 11:32:26;;;;;;;5.47;3.13;;;33.90;25.80;;;;;;5042700;28;20083;-64
2021/06/02 11:35:15;;;;;;;9.55;3.67;;;33.80;26.10;;;;;;5040878;28;20462;-63
2021/06/02 11:37:41;;;;;;;8.18;2.75;;;33.80;25.90;;;;;;5047311;28;20040;-63
2021/06/02 11:40:11;;;;;;;5.95;3.30;;;33.70;26.40;;;;;;5047847;28;20044;-64
2021/06/02 11:42:39;;;;;;;6.10;3.30;;;33.60;26.60;;;;;;5048607;28;20067;-64
2021/06/02 11:45:19;;;;;;;7.90;3.38;;;33.40;26.60;;;;;;5046388;28;20032;-63
2021/06/02 11:47:48;;;;;;;4.10;2.67;;;33.20;26.60;;;;;;5044146;28;20044;-63
2021/06/02 11:50:16;;;;;;;7.07;3.25;;;33.00;27.60;;;;;;5057293;28;20044;-63
2021/06/02 11:52:43;;;;;;;8.55;3.28;;;33.00;28.20;;;;;;5042906;28;20040;-63
2021/06/02 11:55:13;;;;;;;12.52;3.55;;;33.00;27.40;;;;;;5049540;28;20048;-64
2021/06/02 11:57:40;;;;;;;6.03;2.88;;;33.10;27.10;;;;;;5049610;28;20529;-63
2021/06/02 12:00:20;;;;;;;4.47;2.72;;;33.10;27.30;;;;;;5042933;28;20057;-63
2021/06/02 12:02:52;;;;;;;5.70;3.10;;;33.30;27.00;;;;;;5045242;28;20374;-63
2021/06/02 12:05:27;;;;;;;5.95;2.92;;;33.40;26.80;;;;;;5041834;28;20055;-63
2021/06/02 12:08:02;;;;;;;7.32;3.58;;;33.40;27.00;;;;;;5037608;28;20041;-63
2021/06/02 12:10:31;;;;;;;6.85;2.90;;;33.40;26.90;;;;;;5043653;28;20052;-64
2021/06/02 12:13:00;;;;;;;7.43;3.03;;;33.40;27.00;;;;;;5044848;28;20402;-63
2021/06/02 12:15:27;;;;;;;7.97;3.10;;;33.40;26.70;;;;;;5040469;28;20052;-64
2021/06/02 12:17:53;;;;;;;4.35;3.10;;;33.40;27.30;;;;;;5040920;28;20124;-63
2021/06/02 12:20:24;;;;;;;4.72;2.58;;;33.40;27.30;;;;;;5044481;28;20029;-64
2021/06/02 12:22:51;;;;;;;6.82;3.00;;;33.40;27.50;;;;;;5040516;28;20143;-64
2021/06/02 12:25:19;;;;;;;5.50;3.00;;;33.40;27.50;;;;;;5039480;28;20047;-63
2021/06/02 12:27:51;;;;;;;3.97;2.97;;;33.30;27.30;;;;;;5036517;28;20553;-63
2021/06/02 12:30:27;;;;;;;6.13;2.80;;;33.10;27.80;;;;;;5042696;28;20514;-63
2021/06/02 12:32:56;;;;;;;6.53;3.00;;;33.10;27.60;;;;;;5042158;28;20033;-63
2021/06/02 12:35:42;;;;;;;4.72;2.80;;;33.10;28.00;;;;;;5042954;28;20162;-64
2021/06/02 12:38:15;;;;;;;3.63;2.90;;;33.00;28.30;;;;;;5042942;28;20532;-63
2021/06/02 12:40:54;;;;;;;7.65;2.80;;;33.00;28.70;;;;;;5047207;28;20049;-63
2021/06/02 12:43:22;;;;;;;7.25;2.80;;;33.00;28.20;;;;;;5043511;28;20044;-64
2021/06/02 12:45:50;;;;;;;3.95;2.78;;;33.10;28.10;;;;;;5043505;28;20453;-62
2021/06/02 12:48:18;;;;;;;8.10;3.30;;;33.10;28.70;;;;;;5046427;28;20044;-63
2021/06/02 12:50:47;;;;;;;6.80;3.22;;;33.10;28.10;;;;;;5044041;28;20033;-63
2021/06/02 12:53:16;;;;;;;5.30;3.20;;;33.10;27.90;;;;;;5042194;28;20279;-63
2021/06/02 12:55:48;;;;;;;4.72;3.05;;;32.90;28.40;;;;;;5048097;28;20124;-63
2021/06/02 12:58:16;;;;;;;4.70;3.25;;;32.90;28.40;;;;;;5044738;28;20052;-63
2021/06/02 13:00:46;;;;;;;11.57;3.47;;;32.80;29.50;;;;;;5041312;28;20039;-63
2021/06/02 13:03:20;;;;;;;8.70;3.53;;;32.90;29.00;;;;;;5033406;28;20120;-64
2021/06/02 13:05:50;;;;;;;3.63;3.00;;;32.90;28.90;;;;;;5023777;28;20044;-63
2021/06/02 13:08:18;;;;;;;4.97;3.22;;;32.90;28.50;;;;;;5029212;28;20041;-64
2021/06/02 13:10:47;;;;;;;4.88;3.47;;;32.90;28.40;;;;;;5027755;28;20578;-63
2021/06/02 13:13:16;;;;;;;3.90;3.15;;;32.90;28.40;;;;;;5023725;28;20153;-63
2021/06/02 13:15:55;;;;;;;6.72;3.30;;;32.90;28.90;;;;;;5026467;28;20048;-63
2021/06/02 13:18:31;;;;;;;6.97;3.00;;;33.00;28.90;;;;;;5027528;28;20037;-63
2021/06/02 13:21:17;;;;;;;6.55;3.22;;;33.00;29.50;;;;;;5026785;28;20039;-63
2021/06/02 13:23:45;;;;;;;5.63;3.45;;;33.00;29.10;;;;;;5031351;28;20098;-63
2021/06/02 13:26:15;;;;;;;5.07;3.50;;;33.00;28.60;;;;;;5023265;28;20425;-63
2021/06/02 13:28:54;;;;;;;8.57;3.40;;;33.00;28.50;;;;;;5033650;28;20529;-64
2021/06/02 13:31:22;;;;;;;7.22;3.40;;;32.90;28.90;;;;;;5047056;28;20121;-64
2021/06/02 13:33:54;;;;;;;7.60;3.88;;;33.00;28.50;;;;;;5049751;28;20525;-63
2021/06/02 13:36:29;;;;;;;4.70;3.70;;;32.90;28.30;;;;;;5047492;28;20379;-63
2021/06/02 13:39:15;;;;;;;4.32;3.33;;;32.90;28.30;;;;;;5040209;28;20028;-63